Time;durP1;ratioP1;P1;durP2;ratioP2;P2;SDS_P1;SDS_P2;PMS_P1;PMS_P2;Temp;Humidity;BMP_temperature;BMP_pressure;BME280_temperature;BME280_humidity;BME280_pressure;Samples;Min_cycle;Max_cycle;Signal;HPM_P1;HPM_P2
2023/10/04 00:00:27;;;;;;;2.28;2.00;;;21.40;58.20;;;;;;4996253;28;20300;-76
2023/10/04 00:02:54;;;;;;;3.25;1.70;;;21.40;58.20;;;;;;4996164;28;20244;-76
2023/10/04 00:05:23;;;;;;;2.50;1.80;;;21.40;58.30;;;;;;4995604;28;20224;-76
2023/10/04 00:07:50;;;;;;;2.28;1.60;;;21.30;58.20;;;;;;4994981;28;20202;-76
2023/10/04 00:10:18;;;;;;;1.70;1.60;;;21.30;58.20;;;;;;4994677;28;20590;-76
2023/10/04 00:12:47;;;;;;;2.33;1.67;;;21.30;58.20;;;;;;4994632;28;20580;-76
2023/10/04 00:15:14;;;;;;;1.70;1.60;;;21.30;58.20;;;;;;5010841;28;20213;-76
2023/10/04 00:17:41;;;;;;;2.30;1.83;;;21.30;58.20;;;;;;4994621;28;20295;-76
2023/10/04 00:20:10;;;;;;;2.00;1.80;;;21.30;58.90;;;;;;4994502;28;20247;-76
2023/10/04 00:22:39;;;;;;;2.55;1.90;;;21.30;58.30;;;;;;4995623;28;20228;-76
2023/10/04 00:25:11;;;;;;;2.30;1.80;;;21.30;58.30;;;;;;4994360;28;20217;-76
2023/10/04 00:27:40;;;;;;;1.90;1.60;;;21.30;58.30;;;;;;4994377;28;20189;-76
2023/10/04 00:30:16;;;;;;;3.75;1.70;;;21.20;58.30;;;;;;4977879;28;20213;-76
2023/10/04 00:32:46;;;;;;;1.92;1.70;;;21.20;58.30;;;;;;4994244;28;20205;-75
2023/10/04 00:35:15;;;;;;;2.05;1.40;;;21.30;58.40;;;;;;5010480;28;20217;-75
2023/10/04 00:37:43;;;;;;;2.17;1.77;;;21.20;58.40;;;;;;4994210;28;20212;-75
2023/10/04 00:40:14;;;;;;;1.80;1.60;;;21.20;58.40;;;;;;4994048;28;20295;-75
2023/10/04 00:42:42;;;;;;;2.95;1.55;;;21.20;58.40;;;;;;5010499;28;20216;-75
2023/10/04 00:45:13;;;;;;;1.67;1.58;;;21.10;58.30;;;;;;4994396;28;20193;-75
2023/10/04 00:47:42;;;;;;;2.25;1.73;;;21.10;58.30;;;;;;4994166;28;20563;-75
2023/10/04 00:50:15;;;;;;;2.25;1.70;;;21.10;58.30;;;;;;4993709;28;20588;-75
2023/10/04 00:52:48;;;;;;;2.35;1.77;;;21.10;58.30;;;;;;5010319;28;20248;-75
2023/10/04 00:55:17;;;;;;;1.73;1.60;;;21.10;58.30;;;;;;4993792;28;20236;-75
2023/10/04 00:57:45;;;;;;;2.78;1.77;;;21.10;58.30;;;;;;4994126;28;20201;-75
2023/10/04 01:00:15;;;;;;;2.20;1.50;;;21.10;58.30;;;;;;4993726;28;20224;-75
2023/10/04 01:02:42;;;;;;;1.80;1.70;;;21.10;58.30;;;;;;4993983;28;20747;-75
2023/10/04 01:05:11;;;;;;;1.92;1.65;;;21.10;58.40;;;;;;4993660;28;20201;-75
2023/10/04 01:07:39;;;;;;;2.03;1.80;;;21.10;58.30;;;;;;4977968;28;20693;-75
2023/10/04 01:10:14;;;;;;;1.88;1.58;;;21.00;58.20;;;;;;4993479;28;20221;-75
2023/10/04 01:12:43;;;;;;;2.67;1.90;;;21.00;58.20;;;;;;4993551;28;20255;-75
2023/10/04 01:15:29;;;;;;;2.40;1.50;;;21.00;58.20;;;;;;4993385;28;20680;-75
2023/10/04 01:17:59;;;;;;;1.52;1.42;;;21.00;58.20;;;;;;4994604;28;20193;-75
2023/10/04 01:20:28;;;;;;;1.95;1.75;;;21.00;58.20;;;;;;4993300;28;20221;-75
2023/10/04 01:23:00;;;;;;;2.28;1.70;;;21.00;58.20;;;;;;4993782;28;20221;-75
2023/10/04 01:25:31;;;;;;;1.90;1.73;;;21.00;58.20;;;;;;4993461;28;20194;-75
2023/10/04 01:27:59;;;;;;;3.17;1.75;;;21.00;58.30;;;;;;4993346;28;20201;-75
2023/10/04 01:30:26;;;;;;;1.67;1.58;;;21.00;58.20;;;;;;4993318;28;20252;-75
2023/10/04 01:32:54;;;;;;;1.73;1.60;;;21.00;58.20;;;;;;4993572;28;20296;-75
2023/10/04 01:35:23;;;;;;;1.80;1.70;;;21.00;58.20;;;;;;5009845;28;20241;-75
2023/10/04 01:37:51;;;;;;;1.98;1.75;;;20.90;58.20;;;;;;5009440;28;20232;-75
2023/10/04 01:40:24;;;;;;;1.60;1.40;;;21.00;58.20;;;;;;4992761;28;20222;-75
2023/10/04 01:42:55;;;;;;;2.33;1.67;;;21.00;58.20;;;;;;4993128;28;20713;-75
2023/10/04 01:45:23;;;;;;;1.85;1.70;;;21.00;58.30;;;;;;4977040;28;20280;-75
2023/10/04 01:47:51;;;;;;;1.50;1.40;;;20.90;58.20;;;;;;4993044;28;20201;-75
2023/10/04 01:50:18;;;;;;;1.80;1.60;;;20.90;58.20;;;;;;4993225;28;20279;-75
2023/10/04 01:52:47;;;;;;;1.83;1.67;;;20.90;58.20;;;;;;4994348;28;20263;-75
2023/10/04 01:55:16;;;;;;;2.15;1.70;;;20.90;58.10;;;;;;4992905;28;20224;-75
2023/10/04 01:57:45;;;;;;;2.35;1.80;;;20.90;58.10;;;;;;4992965;28;20598;-75
2023/10/04 02:00:17;;;;;;;1.60;1.50;;;20.90;58.10;;;;;;4993380;28;20287;-75
2023/10/04 02:02:44;;;;;;;1.70;1.60;;;20.90;58.10;;;;;;4993016;28;20281;-75
2023/10/04 02:05:15;;;;;;;1.67;1.45;;;20.90;58.10;;;;;;4993293;28;20194;-75
2023/10/04 02:07:43;;;;;;;1.67;1.45;;;20.90;58.10;;;;;;4993679;28;20190;-75
2023/10/04 02:10:13;;;;;;;1.95;1.70;;;20.90;58.10;;;;;;4993030;28;20217;-75
2023/10/04 02:12:40;;;;;;;1.60;1.50;;;20.90;58.10;;;;;;4993601;28;20248;-75
2023/10/04 02:15:14;;;;;;;1.90;1.52;;;20.80;58.00;;;;;;4992804;28;20260;-75
2023/10/04 02:17:44;;;;;;;1.65;1.55;;;20.80;58.00;;;;;;4993001;28;20193;-75
2023/10/04 02:20:21;;;;;;;2.50;1.60;;;20.90;58.10;;;;;;4992740;28;20217;-75
2023/10/04 02:22:48;;;;;;;1.58;1.40;;;20.80;58.00;;;;;;4992880;28;20196;-75
2023/10/04 02:25:15;;;;;;;1.52;1.42;;;20.90;58.10;;;;;;5009135;28;20229;-75
2023/10/04 02:27:44;;;;;;;1.60;1.40;;;20.80;58.00;;;;;;5010387;28;20247;-75
2023/10/04 02:30:21;;;;;;;1.45;1.35;;;20.80;58.00;;;;;;4992707;28;20225;-75
2023/10/04 02:32:50;;;;;;;2.78;1.70;;;20.80;58.00;;;;;;4992716;28;20196;-75
2023/10/04 02:35:23;;;;;;;1.40;1.30;;;20.80;57.90;;;;;;4992631;28;20221;-75
2023/10/04 02:37:54;;;;;;;1.67;1.58;;;20.80;57.90;;;;;;4992705;28;20252;-75
2023/10/04 02:40:22;;;;;;;1.70;1.40;;;20.80;57.90;;;;;;4992701;28;20688;-75
2023/10/04 02:42:53;;;;;;;2.53;1.55;;;20.80;57.90;;;;;;4992655;28;20201;-75
2023/10/04 02:45:24;;;;;;;1.67;1.42;;;20.80;57.90;;;;;;4992598;28;20197;-75
2023/10/04 02:47:52;;;;;;;1.50;1.40;;;20.80;57.90;;;;;;5009190;28;20197;-75
2023/10/04 02:50:24;;;;;;;2.13;1.55;;;20.80;57.90;;;;;;4992044;28;20228;-75
2023/10/04 02:52:59;;;;;;;1.90;1.63;;;20.80;57.80;;;;;;4991765;28;20201;-77
2023/10/04 02:55:31;;;;;;;1.60;1.27;;;20.80;57.90;;;;;;4996574;28;20308;-77
2023/10/04 02:58:00;;;;;;;1.58;1.25;;;20.80;57.90;;;;;;4981153;28;20232;-77
2023/10/04 03:00:29;;;;;;;3.55;1.70;;;20.70;57.90;;;;;;4995952;28;20239;-77
2023/10/04 03:02:57;;;;;;;2.70;1.55;;;20.70;57.80;;;;;;4995865;28;20194;-77
2023/10/04 03:05:29;;;;;;;1.85;1.67;;;20.80;58.00;;;;;;4995847;28;20273;-77
2023/10/04 03:08:05;;;;;;;2.35;1.77;;;20.70;57.80;;;;;;5013188;28;20194;-77
2023/10/04 03:10:33;;;;;;;2.33;1.48;;;20.70;57.70;;;;;;5012054;28;20221;-77
2023/10/04 03:13:03;;;;;;;2.03;1.70;;;20.70;57.50;;;;;;4996085;28;20256;-77
2023/10/04 03:15:34;;;;;;;1.60;1.50;;;20.70;57.20;;;;;;4996279;28;20213;-77
2023/10/04 03:18:13;;;;;;;1.70;1.60;;;20.70;57.20;;;;;;4995900;28;20216;-77
2023/10/04 03:20:48;;;;;;;1.70;1.58;;;20.70;57.20;;;;;;4995923;28;20217;-77
2023/10/04 03:23:18;;;;;;;2.38;1.52;;;20.80;57.20;;;;;;4995654;28;20292;-77
2023/10/04 03:25:48;;;;;;;2.10;1.73;;;20.90;57.10;;;;;;4995527;28;20193;-77
2023/10/04 03:28:15;;;;;;;2.05;1.73;;;20.90;57.00;;;;;;4995368;28;20211;-77
2023/10/04 03:30:45;;;;;;;2.00;1.50;;;20.90;56.90;;;;;;5011731;28;20267;-77
2023/10/04 03:33:12;;;;;;;2.08;1.70;;;21.00;56.70;;;;;;5011959;28;20197;-77
2023/10/04 03:35:43;;;;;;;1.83;1.67;;;21.00;56.50;;;;;;4995157;28;20213;-77
2023/10/04 03:38:11;;;;;;;1.98;1.70;;;21.10;56.50;;;;;;4996017;28;20588;-77
2023/10/04 03:40:40;;;;;;;2.10;1.65;;;21.10;56.40;;;;;;4995546;28;20631;-77
2023/10/04 03:43:13;;;;;;;1.90;1.65;;;21.10;56.30;;;;;;4995295;28;20185;-77
2023/10/04 03:45:45;;;;;;;1.83;1.60;;;21.10;56.30;;;;;;4995209;28;20248;-77
2023/10/04 03:48:18;;;;;;;2.35;1.80;;;21.10;56.20;;;;;;4995697;28;20196;-77
2023/10/04 03:53:26;;;;;;;1.60;1.50;;;21.10;56.00;;;;;;5052393;28;20272;-53
2023/10/04 03:55:55;;;;;;;1.58;1.48;;;21.10;56.00;;;;;;5037124;28;20220;-53
2023/10/04 03:58:22;;;;;;;2.03;1.70;;;21.20;56.00;;;;;;5045043;28;20307;-53
2023/10/04 04:00:51;;;;;;;2.03;1.80;;;21.20;55.80;;;;;;5053701;28;20245;-53
2023/10/04 04:03:19;;;;;;;1.70;1.40;;;21.20;56.30;;;;;;5053338;28;20191;-53
2023/10/04 04:05:46;;;;;;;2.22;1.70;;;21.20;55.80;;;;;;5053489;28;20196;-53
2023/10/04 04:08:13;;;;;;;1.77;1.55;;;21.20;55.60;;;;;;5055242;28;20219;-53
2023/10/04 04:10:42;;;;;;;1.80;1.58;;;21.20;55.70;;;;;;5053429;28;20737;-53
2023/10/04 04:13:09;;;;;;;2.00;1.70;;;21.30;55.70;;;;;;5054300;28;20569;-53
2023/10/04 04:15:39;;;;;;;2.40;1.67;;;21.20;55.70;;;;;;5054614;28;20211;-53
2023/10/04 04:18:19;;;;;;;1.70;1.60;;;21.20;55.80;;;;;;5053478;28;20563;-54
2023/10/04 04:20:49;;;;;;;2.33;1.70;;;21.20;55.70;;;;;;5053352;28;20691;-53
2023/10/04 04:23:17;;;;;;;1.60;1.50;;;21.20;55.70;;;;;;5053284;28;20195;-53
2023/10/04 04:25:48;;;;;;;1.77;1.60;;;21.20;55.70;;;;;;5053184;28;20183;-53
2023/10/04 04:28:18;;;;;;;1.75;1.58;;;21.10;55.70;;;;;;5053098;28;20238;-53
2023/10/04 04:30:46;;;;;;;2.22;1.70;;;21.10;55.80;;;;;;5053114;28;20230;-53
2023/10/04 04:33:18;;;;;;;1.63;1.40;;;21.10;55.80;;;;;;5053084;28;20195;-53
2023/10/04 04:35:52;;;;;;;2.20;1.70;;;21.10;55.80;;;;;;5053392;28;20734;-53
2023/10/04 04:38:24;;;;;;;2.75;2.08;;;21.10;56.40;;;;;;5052897;28;20242;-53
2023/10/04 04:40:56;;;;;;;2.60;1.73;;;21.10;55.80;;;;;;5052965;28;20199;-53
2023/10/04 04:43:35;;;;;;;1.73;1.60;;;21.10;56.40;;;;;;5053983;28;20196;-53
2023/10/04 04:46:06;;;;;;;2.70;1.60;;;21.10;55.90;;;;;;5052835;28;20195;-53
2023/10/04 04:48:37;;;;;;;2.35;1.70;;;21.10;55.90;;;;;;5052765;28;20218;-53
2023/10/04 04:51:12;;;;;;;2.53;1.63;;;21.00;55.90;;;;;;5054132;28;20187;-53
2023/10/04 04:53:46;;;;;;;1.67;1.58;;;21.00;55.80;;;;;;5054239;28;20221;-53
2023/10/04 04:56:18;;;;;;;2.25;1.70;;;21.00;55.80;;;;;;5052565;28;20303;-53
2023/10/04 04:58:48;;;;;;;1.75;1.52;;;21.00;55.70;;;;;;5052629;28;20246;-53
2023/10/04 05:01:17;;;;;;;1.75;1.60;;;21.00;55.80;;;;;;5052550;28;20191;-53
2023/10/04 05:03:49;;;;;;;1.90;1.70;;;21.00;55.70;;;;;;5052480;28;20668;-53
2023/10/04 05:06:21;;;;;;;1.92;1.70;;;21.00;55.80;;;;;;5052505;28;20183;-53
2023/10/04 05:08:48;;;;;;;1.90;1.75;;;21.00;55.70;;;;;;5053889;28;20684;-54
2023/10/04 05:11:15;;;;;;;2.28;1.50;;;21.00;55.80;;;;;;5053743;28;20192;-53
2023/10/04 05:13:43;;;;;;;1.48;1.38;;;21.00;55.80;;;;;;5053838;28;20187;-53
2023/10/04 05:16:11;;;;;;;1.60;1.50;;;21.00;55.80;;;;;;5051452;28;20664;-53
2023/10/04 05:18:38;;;;;;;1.73;1.58;;;20.90;55.80;;;;;;5052189;28;20215;-53
2023/10/04 05:21:10;;;;;;;1.80;1.45;;;20.90;55.80;;;;;;5053445;28;20183;-53
2023/10/04 05:23:38;;;;;;;1.65;1.42;;;20.90;55.90;;;;;;5053498;28;20245;-53
2023/10/04 05:26:05;;;;;;;2.38;1.60;;;20.90;55.90;;;;;;5053465;28;20194;-53
2023/10/04 05:28:34;;;;;;;1.75;1.58;;;20.90;56.00;;;;;;5052078;28;20230;-53
2023/10/04 05:31:02;;;;;;;1.45;1.35;;;20.90;56.00;;;;;;5053698;28;20248;-53
2023/10/04 05:33:30;;;;;;;2.00;1.80;;;20.90;56.00;;;;;;5053347;28;20598;-53
2023/10/04 05:36:01;;;;;;;1.85;1.60;;;20.80;56.10;;;;;;5053566;28;20218;-53
2023/10/04 05:38:29;;;;;;;1.60;1.50;;;20.80;56.20;;;;;;5052239;28;20227;-53
2023/10/04 05:40:57;;;;;;;1.90;1.60;;;20.80;56.20;;;;;;5052008;28;20575;-53
2023/10/04 05:43:24;;;;;;;1.65;1.35;;;20.80;56.20;;;;;;5053276;28;20191;-53
2023/10/04 05:45:52;;;;;;;1.90;1.60;;;20.80;56.30;;;;;;5051996;28;20248;-53
2023/10/04 05:48:19;;;;;;;2.08;1.55;;;20.80;56.30;;;;;;5051874;28;20285;-53
2023/10/04 05:50:49;;;;;;;1.65;1.55;;;20.70;56.20;;;;;;5051895;28;20261;-53
2023/10/04 05:53:19;;;;;;;1.65;1.50;;;20.80;56.30;;;;;;5053144;28;20279;-53
2023/10/04 05:55:48;;;;;;;2.08;1.70;;;20.70;56.20;;;;;;5053148;28;20179;-53
2023/10/04 05:58:16;;;;;;;1.98;1.60;;;20.70;56.20;;;;;;5051807;28;20691;-53
2023/10/04 06:00:42;;;;;;;1.60;1.50;;;20.70;56.10;;;;;;5053266;28;20187;-53
2023/10/04 06:03:11;;;;;;;1.73;1.48;;;20.70;55.80;;;;;;5054623;28;20203;-51
2023/10/04 06:05:39;;;;;;;2.10;1.80;;;20.70;55.60;;;;;;5055525;28;20659;-51
2023/10/04 06:08:10;;;;;;;2.03;1.45;;;20.70;55.10;;;;;;5055795;28;20211;-51
2023/10/04 06:10:37;;;;;;;2.75;1.60;;;20.80;55.20;;;;;;5055177;28;20198;-51
2023/10/04 06:13:10;;;;;;;2.83;1.90;;;20.70;55.10;;;;;;5054113;28;20191;-51
2023/10/04 06:15:40;;;;;;;2.03;1.58;;;20.80;55.20;;;;;;5053068;28;20195;-51
2023/10/04 06:18:08;;;;;;;5.30;1.70;;;20.80;55.50;;;;;;5054728;28;20619;-51
2023/10/04 06:20:36;;;;;;;3.15;2.17;;;20.80;55.40;;;;;;5053283;28;20200;-51
2023/10/04 06:23:05;;;;;;;2.78;1.60;;;20.90;55.20;;;;;;5055432;28;20188;-50
2023/10/04 06:25:34;;;;;;;2.15;1.80;;;20.90;55.90;;;;;;5055512;28;20187;-50
2023/10/04 06:28:01;;;;;;;2.63;1.90;;;20.90;55.30;;;;;;5055333;28;20298;-52
2023/10/04 06:30:32;;;;;;;2.10;1.60;;;20.90;55.10;;;;;;5058522;28;20195;-51
2023/10/04 06:33:00;;;;;;;1.90;1.70;;;20.90;55.30;;;;;;5055635;28;20198;-55
2023/10/04 06:35:27;;;;;;;3.03;2.13;;;20.90;55.20;;;;;;5055268;28;20191;-55
2023/10/04 06:37:55;;;;;;;3.13;1.90;;;20.90;55.30;;;;;;5072362;22;20231;-67
2023/10/04 06:40:22;;;;;;;3.08;1.88;;;20.90;55.30;;;;;;5057105;28;20309;-66
2023/10/04 06:42:50;;;;;;;3.40;1.70;;;20.90;55.30;;;;;;5056780;28;20214;-66
2023/10/04 06:45:17;;;;;;;3.33;1.70;;;21.00;55.40;;;;;;5056527;28;20570;-67
2023/10/04 06:47:47;;;;;;;2.65;2.00;;;21.00;55.30;;;;;;5056395;28;20235;-66
2023/10/04 06:50:15;;;;;;;2.17;1.48;;;21.00;55.40;;;;;;5056423;28;20197;-66
2023/10/04 06:52:43;;;;;;;1.67;1.52;;;21.00;55.40;;;;;;5056032;28;20275;-66
2023/10/04 06:55:11;;;;;;;3.60;1.90;;;21.00;55.10;;;;;;5054713;28;20290;-66
2023/10/04 06:57:39;;;;;;;4.65;1.92;;;21.00;55.10;;;;;;5054684;28;20223;-66
2023/10/04 07:00:13;;;;;;;2.38;1.83;;;21.10;54.60;;;;;;5054883;28;20253;-66
2023/10/04 07:02:43;;;;;;;2.92;1.83;;;21.10;53.00;;;;;;5056230;28;20204;-66
2023/10/04 07:05:13;;;;;;;2.60;2.00;;;21.10;52.60;;;;;;5056213;28;20195;-67
2023/10/04 07:07:40;;;;;;;2.20;1.80;;;21.10;53.20;;;;;;5055923;28;20207;-66
2023/10/04 07:10:08;;;;;;;6.70;2.17;;;21.10;53.30;;;;;;5054611;28;20573;-66
2023/10/04 07:12:36;;;;;;;2.13;1.80;;;21.20;53.60;;;;;;5054581;28;20203;-66
2023/10/04 07:15:06;;;;;;;4.03;1.70;;;21.20;53.70;;;;;;5054367;28;20226;-66
2023/10/04 07:17:33;;;;;;;3.28;1.88;;;21.20;53.40;;;;;;5054418;28;20619;-67
2023/10/04 07:20:00;;;;;;;2.58;2.10;;;21.30;53.00;;;;;;5054294;28;20195;-66
2023/10/04 07:22:32;;;;;;;2.53;1.90;;;21.30;53.00;;;;;;5054208;28;20199;-66
2023/10/04 07:24:59;;;;;;;3.03;2.00;;;21.30;52.90;;;;;;5055819;28;20593;-65
2023/10/04 07:27:26;;;;;;;3.08;2.05;;;21.30;52.80;;;;;;5055422;28;20184;-65
2023/10/04 07:29:54;;;;;;;3.03;2.00;;;21.30;52.80;;;;;;5055357;28;20223;-65
2023/10/04 07:32:21;;;;;;;2.53;2.10;;;21.40;52.80;;;;;;5053940;28;20229;-65
2023/10/04 07:34:48;;;;;;;2.55;2.00;;;21.50;52.80;;;;;;5053970;28;20290;-66
2023/10/04 07:37:15;;;;;;;3.92;2.17;;;21.70;52.60;;;;;;5053708;28;20223;-66
2023/10/04 07:39:44;;;;;;;3.60;2.25;;;21.90;52.90;;;;;;5053147;28;20230;-65
2023/10/04 07:42:11;;;;;;;3.42;2.03;;;22.00;51.80;;;;;;5055087;28;20203;-65
2023/10/04 07:44:38;;;;;;;2.65;2.20;;;22.10;51.70;;;;;;5055087;28;20732;-66
2023/10/04 07:47:26;;;;;;;2.80;2.35;;;22.10;51.40;;;;;;5055324;28;20218;-66
2023/10/04 07:49:53;;;;;;;3.40;2.20;;;22.20;51.30;;;;;;5053786;28;20636;-65
2023/10/04 07:52:20;;;;;;;2.30;2.05;;;22.30;51.20;;;;;;5053600;28;20671;-66
2023/10/04 07:54:50;;;;;;;2.88;2.40;;;22.40;51.00;;;;;;5055000;28;20226;-66
2023/10/04 07:57:17;;;;;;;3.25;2.00;;;22.50;50.80;;;;;;5055069;28;20210;-66
2023/10/04 07:59:44;;;;;;;4.38;2.08;;;22.70;50.40;;;;;;5053569;28;20195;-66
2023/10/04 08:02:13;;;;;;;2.20;2.00;;;22.80;50.30;;;;;;5053530;28;20192;-66
2023/10/04 08:04:40;;;;;;;3.25;1.90;;;23.00;49.80;;;;;;5055050;28;20188;-66
2023/10/04 08:07:12;;;;;;;2.90;1.98;;;23.20;49.60;;;;;;5053550;28;20626;-66
2023/10/04 08:09:39;;;;;;;2.95;2.20;;;23.30;49.20;;;;;;5053373;28;20223;-66
2023/10/04 08:12:08;;;;;;;2.20;2.00;;;23.40;48.50;;;;;;5053472;28;20665;-66
2023/10/04 08:14:35;;;;;;;2.63;2.15;;;23.50;48.60;;;;;;5054976;28;20191;-66
2023/10/04 08:17:01;;;;;;;2.40;1.80;;;23.60;48.30;;;;;;5053264;28;20215;-66
2023/10/04 08:19:29;;;;;;;3.03;2.10;;;23.70;48.10;;;;;;5054731;28;20211;-66
2023/10/04 08:21:56;;;;;;;2.30;2.10;;;23.80;47.80;;;;;;5053164;28;20632;-66
2023/10/04 08:24:24;;;;;;;2.08;1.88;;;23.90;47.60;;;;;;5054378;28;20213;-66
2023/10/04 08:26:50;;;;;;;2.78;1.67;;;24.00;47.70;;;;;;5054225;28;20195;-66
2023/10/04 08:29:42;;;;;;;2.17;1.75;;;24.00;47.50;;;;;;5054319;28;20292;-66
2023/10/04 08:32:10;;;;;;;2.20;1.75;;;24.10;47.30;;;;;;5054437;28;20180;-67
2023/10/04 08:34:37;;;;;;;3.75;2.00;;;24.20;47.20;;;;;;5054146;28;20221;-66
2023/10/04 08:37:04;;;;;;;2.45;2.00;;;24.20;47.20;;;;;;5053923;28;20597;-66
2023/10/04 08:39:33;;;;;;;2.45;1.98;;;24.30;47.00;;;;;;5053010;28;20776;-66
2023/10/04 08:42:01;;;;;;;2.15;1.70;;;24.40;46.90;;;;;;5054149;28;20249;-66
2023/10/04 08:44:28;;;;;;;2.25;2.00;;;24.50;46.80;;;;;;5052752;28;20269;-66
2023/10/04 08:46:57;;;;;;;3.20;2.28;;;24.50;46.60;;;;;;5052861;28;20657;-66
2023/10/04 08:49:25;;;;;;;3.30;2.08;;;24.60;46.40;;;;;;5053771;28;20635;-66
2023/10/04 08:51:56;;;;;;;2.97;2.15;;;24.70;46.50;;;;;;5053888;28;20184;-66
2023/10/04 08:54:24;;;;;;;2.13;1.92;;;24.70;46.20;;;;;;5054208;28;20258;-67
2023/10/04 08:56:55;;;;;;;2.95;1.90;;;24.80;46.20;;;;;;5052607;28;20211;-67
2023/10/04 08:59:23;;;;;;;2.20;1.75;;;24.80;46.00;;;;;;5052496;28;20701;-66
2023/10/04 09:01:50;;;;;;;2.00;1.80;;;24.90;45.90;;;;;;5052621;28;20201;-66
2023/10/04 09:04:20;;;;;;;4.05;1.90;;;24.90;45.80;;;;;;5052312;28;20195;-66
2023/10/04 09:06:48;;;;;;;2.40;2.03;;;25.00;45.80;;;;;;5053882;28;20278;-66
2023/10/04 09:09:17;;;;;;;3.15;2.00;;;25.00;45.60;;;;;;5053481;28;20214;-66
2023/10/04 09:11:45;;;;;;;2.53;1.90;;;25.00;45.50;;;;;;5053807;28;20606;-66
2023/10/04 09:14:14;;;;;;;3.65;2.28;;;25.10;45.40;;;;;;5053386;28;20222;-66
2023/10/04 09:16:41;;;;;;;2.42;1.70;;;25.10;45.30;;;;;;5052244;28;20203;-66
2023/10/04 09:19:13;;;;;;;2.88;2.08;;;25.10;45.30;;;;;;5053399;28;20290;-66
2023/10/04 09:22:06;;;;;;;2.95;1.80;;;25.10;45.20;;;;;;5060127;28;20277;-66
2023/10/04 09:24:37;;;;;;;2.05;1.80;;;25.20;45.30;;;;;;5052243;28;20290;-66
2023/10/04 09:27:04;;;;;;;2.63;2.03;;;25.20;45.30;;;;;;5053636;28;20176;-66
2023/10/04 09:29:32;;;;;;;2.53;1.95;;;25.20;45.20;;;;;;5052263;28;20218;-66
2023/10/04 09:31:59;;;;;;;3.35;2.08;;;25.30;45.10;;;;;;5052332;28;20203;-67
2023/10/04 09:34:28;;;;;;;2.75;2.03;;;25.30;45.00;;;;;;5052229;28;20649;-67
2023/10/04 09:36:55;;;;;;;2.40;2.10;;;25.30;44.90;;;;;;5051796;28;20199;-67
2023/10/04 09:39:24;;;;;;;2.53;1.90;;;25.30;44.90;;;;;;5053290;28;20215;-66
2023/10/04 09:41:54;;;;;;;2.40;2.00;;;25.40;44.80;;;;;;5053074;28;20201;-67
2023/10/04 09:44:23;;;;;;;3.17;2.30;;;25.40;44.80;;;;;;5053464;28;20193;-68
2023/10/04 09:46:54;;;;;;;2.63;1.83;;;25.40;44.80;;;;;;5051861;28;20248;-67
2023/10/04 09:51:51;;;;;;;3.25;2.08;;;25.40;44.70;;;;;;5051334;28;20219;-78
2023/10/04 09:54:18;;;;;;;2.22;1.70;;;25.40;44.80;;;;;;5052709;28;20199;-78
2023/10/04 09:56:47;;;;;;;2.20;1.77;;;25.30;44.90;;;;;;5053035;28;20202;-78
2023/10/04 09:59:19;;;;;;;2.08;1.60;;;25.30;45.00;;;;;;5052667;28;20281;-78
2023/10/04 10:01:48;;;;;;;2.70;1.90;;;25.20;45.10;;;;;;5053034;28;20223;-78
2023/10/04 10:04:18;;;;;;;1.92;1.60;;;25.20;45.20;;;;;;5056615;28;20290;-78
2023/10/04 10:06:50;;;;;;;3.70;1.92;;;25.10;45.30;;;;;;5057251;28;20245;-78
2023/10/04 10:09:19;;;;;;;2.35;1.90;;;25.10;45.40;;;;;;5056445;28;20689;-78
2023/10/04 10:11:52;;;;;;;2.33;1.95;;;25.00;45.40;;;;;;5056726;28;20286;-79
2023/10/04 10:14:21;;;;;;;2.42;1.55;;;25.00;45.50;;;;;;5056816;28;20198;-80
2023/10/04 10:16:54;;;;;;;2.50;1.90;;;25.00;45.60;;;;;;5059453;28;20191;-80
2023/10/04 10:19:26;;;;;;;2.20;1.88;;;25.00;45.60;;;;;;5058295;28;20215;-80
2023/10/04 10:22:03;;;;;;;1.95;1.67;;;24.90;45.50;;;;;;5055834;28;20183;-80
2023/10/04 10:24:30;;;;;;;1.90;1.70;;;24.90;45.70;;;;;;5040106;28;20202;-80
2023/10/04 10:27:08;;;;;;;2.53;1.70;;;24.90;45.80;;;;;;5056236;28;20203;-80
2023/10/04 10:29:36;;;;;;;2.85;1.98;;;24.80;45.90;;;;;;5056210;28;20697;-80
2023/10/04 10:32:09;;;;;;;2.70;1.70;;;24.70;46.00;;;;;;5056211;28;20227;-80
2023/10/04 10:34:35;;;;;;;2.60;1.73;;;24.70;46.00;;;;;;5041125;28;20609;-80
2023/10/04 10:37:09;;;;;;;2.03;1.65;;;24.60;46.10;;;;;;5055918;28;20187;-80
2023/10/04 10:39:43;;;;;;;2.75;1.95;;;24.60;46.30;;;;;;5055883;28;20242;-80
2023/10/04 10:42:11;;;;;;;1.85;1.70;;;24.50;46.40;;;;;;5064219;28;20543;-80
2023/10/04 10:44:39;;;;;;;1.70;1.60;;;24.50;46.40;;;;;;5056028;28;20282;-80
2023/10/04 10:47:17;;;;;;;2.15;1.70;;;24.50;46.40;;;;;;5056914;28;20199;-80
2023/10/04 10:49:56;;;;;;;1.92;1.60;;;24.60;46.50;;;;;;5062950;28;20215;-80
2023/10/04 10:52:33;;;;;;;2.42;1.67;;;24.60;46.80;;;;;;5056168;28;20634;-80
2023/10/04 10:55:01;;;;;;;3.25;1.70;;;24.60;46.50;;;;;;5057220;28;20190;-80
2023/10/04 10:57:30;;;;;;;2.70;1.60;;;24.60;46.60;;;;;;5056916;28;20282;-80
2023/10/04 10:59:57;;;;;;;2.40;1.70;;;24.60;46.60;;;;;;5039292;28;20307;-80
2023/10/04 11:02:26;;;;;;;2.33;1.75;;;24.50;47.30;;;;;;5040675;28;20210;-80
2023/10/04 11:04:53;;;;;;;2.10;1.60;;;24.50;46.80;;;;;;5057210;28;20579;-80
2023/10/04 11:07:22;;;;;;;1.70;1.60;;;24.50;46.80;;;;;;5104492;22;20239;-79
2023/10/04 11:09:50;;;;;;;2.45;1.70;;;24.50;46.90;;;;;;5035946;28;20216;-79
2023/10/04 11:12:18;;;;;;;2.33;1.60;;;24.50;46.80;;;;;;5036054;28;20577;-79
2023/10/04 11:17:22;;;;;;;2.63;1.80;;;24.50;46.80;;;;;;5034231;28;20265;-73
2023/10/04 11:19:50;;;;;;;2.35;1.70;;;24.50;46.80;;;;;;5036060;28;20184;-72
2023/10/04 11:22:19;;;;;;;1.95;1.50;;;24.50;46.80;;;;;;5034876;28;20204;-72
2023/10/04 11:24:46;;;;;;;1.75;1.42;;;24.50;46.80;;;;;;5036307;28;20692;-73
2023/10/04 11:27:18;;;;;;;1.65;1.50;;;24.50;46.90;;;;;;5034694;28;20228;-72
2023/10/04 11:29:45;;;;;;;1.80;1.42;;;24.40;46.90;;;;;;5034539;28;20203;-72
2023/10/04 11:32:12;;;;;;;1.60;1.50;;;24.40;46.90;;;;;;5034472;28;20609;-71
2023/10/04 11:34:40;;;;;;;2.30;1.60;;;24.40;47.00;;;;;;5034406;28;20204;-71
2023/10/04 11:37:08;;;;;;;2.50;1.63;;;24.40;47.00;;;;;;5035351;28;20551;-72
2023/10/04 11:39:35;;;;;;;1.98;1.50;;;24.50;47.10;;;;;;5035589;28;20265;-72
2023/10/04 11:42:02;;;;;;;1.85;1.50;;;24.50;47.10;;;;;;5034300;28;20250;-73
2023/10/04 11:44:33;;;;;;;3.25;1.90;;;24.50;47.10;;;;;;5035484;28;20731;-71
2023/10/04 11:47:03;;;;;;;1.67;1.40;;;24.50;47.20;;;;;;5035511;28;20180;-73
2023/10/04 11:49:32;;;;;;;2.50;1.63;;;24.50;47.20;;;;;;5035206;28;20211;-72
2023/10/04 11:52:02;;;;;;;2.40;1.63;;;24.50;47.10;;;;;;5034023;28;20215;-72
2023/10/04 11:54:39;;;;;;;2.15;1.50;;;24.50;47.20;;;;;;5034111;28;20200;-72
2023/10/04 11:57:06;;;;;;;2.45;1.60;;;24.50;47.20;;;;;;5034016;28;20203;-72
2023/10/04 11:59:33;;;;;;;2.25;1.50;;;24.50;47.20;;;;;;5033830;28;20220;-71
2023/10/04 12:02:01;;;;;;;2.28;1.52;;;24.50;47.20;;;;;;5033874;28;20192;-72
2023/10/04 12:04:28;;;;;;;1.80;1.52;;;24.60;47.40;;;;;;5033799;28;20203;-72
2023/10/04 12:07:00;;;;;;;1.48;1.30;;;24.50;47.30;;;;;;5035015;28;20197;-71
2023/10/04 12:09:30;;;;;;;1.85;1.40;;;24.50;47.30;;;;;;5033606;28;20266;-71
2023/10/04 12:11:58;;;;;;;1.98;1.38;;;24.50;47.20;;;;;;5034032;28;20633;-72
2023/10/04 12:14:26;;;;;;;1.75;1.27;;;24.50;47.30;;;;;;5035410;28;20353;-74
2023/10/04 12:16:53;;;;;;;2.35;1.27;;;24.50;47.40;;;;;;5033482;28;20235;-74
2023/10/04 12:19:20;;;;;;;2.28;1.67;;;24.50;47.50;;;;;;5033348;28;20262;-72
2023/10/04 12:21:47;;;;;;;2.40;1.52;;;24.50;47.70;;;;;;5033562;28;20219;-71
2023/10/04 12:24:16;;;;;;;1.85;1.65;;;24.50;47.70;;;;;;5033433;28;20200;-71
2023/10/04 12:26:43;;;;;;;2.10;1.52;;;24.50;47.80;;;;;;5034453;28;20192;-71
2023/10/04 12:29:11;;;;;;;1.77;1.42;;;24.40;47.70;;;;;;5034598;28;20235;-71
2023/10/04 12:31:39;;;;;;;2.05;1.23;;;24.50;47.90;;;;;;5033500;28;20322;-71
2023/10/04 12:34:06;;;;;;;1.88;1.73;;;24.50;48.00;;;;;;5034117;28;20265;-71
2023/10/04 12:36:32;;;;;;;2.30;1.58;;;24.40;47.90;;;;;;5034528;28;20199;-71
2023/10/04 12:39:00;;;;;;;1.48;1.30;;;24.40;48.00;;;;;;5033164;28;20228;-71
2023/10/04 12:41:28;;;;;;;2.10;1.63;;;24.40;48.10;;;;;;5034582;28;20246;-71
2023/10/04 12:43:55;;;;;;;1.67;1.50;;;24.40;48.10;;;;;;5033514;28;20203;-71
2023/10/04 12:46:22;;;;;;;2.10;1.30;;;24.50;48.20;;;;;;5034232;28;20290;-71
2023/10/04 12:48:49;;;;;;;1.67;1.40;;;24.50;48.10;;;;;;5033350;28;20693;-71
2023/10/04 12:51:16;;;;;;;1.42;1.30;;;24.40;48.10;;;;;;5034415;28;20195;-71
2023/10/04 12:53:44;;;;;;;1.83;1.50;;;24.40;48.20;;;;;;5034258;28;20187;-71
2023/10/04 12:56:13;;;;;;;1.85;1.50;;;24.40;48.30;;;;;;5033264;28;20205;-71
2023/10/04 12:58:42;;;;;;;2.05;1.48;;;24.30;48.30;;;;;;5034033;28;20731;-71
2023/10/04 13:01:10;;;;;;;2.45;1.30;;;24.30;48.30;;;;;;5032909;28;20230;-72
2023/10/04 13:03:37;;;;;;;2.00;1.60;;;24.30;48.40;;;;;;5033272;28;20200;-72
2023/10/04 13:06:10;;;;;;;1.40;1.30;;;24.30;48.40;;;;;;5034005;28;20731;-72